createdAt,value
2018-05-07T00:00:13.984Z,51.10
2018-05-07T00:02:41.059Z,51.30
2018-05-07T00:05:08.138Z,51.40
2018-05-07T00:07:35.220Z,51.50
2018-05-07T00:10:02.297Z,51.50
2018-05-07T00:12:29.378Z,51.90
2018-05-07T00:14:56.449Z,51.90
2018-05-07T00:17:23.525Z,52.00
2018-05-07T00:19:51.042Z,51.90
2018-05-07T00:22:18.553Z,52.00
2018-05-07T00:24:46.830Z,52.20
2018-05-07T00:27:14.681Z,52.20
2018-05-07T00:29:41.772Z,52.20
2018-05-07T00:32:08.837Z,52.10
2018-05-07T00:34:35.905Z,51.90
2018-05-07T00:37:02.997Z,51.90
2018-05-07T00:39:30.073Z,51.80
2018-05-07T00:41:57.140Z,51.90
2018-05-07T00:44:24.215Z,51.90
2018-05-07T00:46:51.277Z,51.90
2018-05-07T00:49:18.353Z,52.10
2018-05-07T00:51:45.429Z,52.50
2018-05-07T00:54:12.933Z,52.80
2018-05-07T00:56:40.793Z,53.20
2018-05-07T00:59:08.620Z,53.30
2018-05-07T01:01:35.705Z,53.40
2018-05-07T01:04:02.781Z,53.40
2018-05-07T01:06:29.853Z,53.70
2018-05-07T01:08:56.930Z,53.90
2018-05-07T01:11:24.006Z,54.10
2018-05-07T01:13:51.085Z,54.10
2018-05-07T01:16:18.158Z,54.10
2018-05-07T01:18:45.232Z,54.20
2018-05-07T01:21:12.308Z,54.30
2018-05-07T01:23:40.142Z,54.50
2018-05-07T01:26:07.213Z,54.50
2018-05-07T01:28:34.725Z,54.90
2018-05-07T01:31:02.253Z,54.90
2018-05-07T01:33:29.758Z,55.00
2018-05-07T01:35:57.273Z,55.00
2018-05-07T01:38:24.790Z,54.80
2018-05-07T01:40:52.302Z,54.70
2018-05-07T01:43:19.826Z,54.80
2018-05-07T01:45:48.129Z,54.80
2018-05-07T01:48:15.638Z,54.80
2018-05-07T01:50:43.146Z,54.70
2018-05-07T01:53:10.213Z,54.60
2018-05-07T01:55:37.722Z,54.70
2018-05-07T01:58:05.242Z,54.70
2018-05-07T02:00:32.750Z,54.80
2018-05-07T02:03:01.033Z,55.20
2018-05-07T02:05:29.305Z,55.30
2018-05-07T02:07:57.593Z,55.20
2018-05-07T02:10:25.106Z,55.20
2018-05-07T02:12:52.200Z,55.10
2018-05-07T02:15:19.264Z,55.10
2018-05-07T02:17:46.332Z,55.00
2018-05-07T02:20:13.846Z,55.10
2018-05-07T02:22:41.676Z,56.50
2018-05-07T02:25:08.745Z,56.50
2018-05-07T02:27:36.582Z,56.60
2018-05-07T02:30:03.649Z,56.60
2018-05-07T02:32:31.173Z,56.60
2018-05-07T02:34:58.678Z,56.90
2018-05-07T02:37:26.529Z,57.10
2018-05-07T02:39:53.603Z,57.10
2018-05-07T02:42:21.432Z,57.30
2018-05-07T02:44:48.513Z,57.30
2018-05-07T02:47:16.393Z,57.20
2018-05-07T02:49:43.474Z,57.20
2018-05-07T02:52:10.537Z,57.30
2018-05-07T02:54:37.606Z,57.20
2018-05-07T02:57:04.670Z,56.90
2018-05-07T02:59:32.518Z,57.20
2018-05-07T03:02:00.101Z,57.20
2018-05-07T03:04:27.477Z,57.10
2018-05-07T03:06:54.995Z,57.10
2018-05-07T03:09:22.505Z,57.10
2018-05-07T03:11:50.025Z,57.20
2018-05-07T03:14:18.302Z,57.60
2018-05-07T03:16:46.152Z,57.50
2018-05-07T03:19:13.213Z,57.50
2018-05-07T03:21:41.045Z,57.30
2018-05-07T03:24:08.137Z,57.20
2018-05-07T03:26:35.970Z,57.30
2018-05-07T03:29:03.045Z,57.30
2018-05-07T03:31:30.904Z,57.10
2018-05-07T03:33:57.972Z,57.10
2018-05-07T03:36:25.060Z,57.60
2018-05-07T03:38:52.156Z,56.90
2018-05-07T03:41:20.012Z,57.20
2018-05-07T03:43:47.077Z,57.20
2018-05-07T03:46:14.909Z,57.30
2018-05-07T03:48:41.989Z,57.30
2018-05-07T03:51:09.837Z,57.50
2018-05-07T03:53:37.689Z,57.50
2018-05-07T03:56:04.765Z,57.40
2018-05-07T03:58:32.616Z,57.30
2018-05-07T04:00:59.688Z,57.30
2018-05-07T04:03:26.769Z,57.30
2018-05-07T04:05:53.845Z,57.10
2018-05-07T04:08:20.925Z,56.80
2018-05-07T04:10:48.765Z,56.70
2018-05-07T04:13:15.866Z,56.70
2018-05-07T04:15:42.938Z,56.50
2018-05-07T04:18:16.881Z,56.40
2018-05-07T04:20:49.837Z,56.10
2018-05-07T04:23:22.847Z,56.10
2018-05-07T04:25:49.885Z,56.40
2018-05-07T04:28:16.965Z,56.50
2018-05-07T04:30:44.801Z,56.10
2018-05-07T04:33:11.890Z,56.10
2018-05-07T04:35:38.971Z,56.10
2018-05-07T04:38:06.046Z,55.60
2018-05-07T04:40:33.125Z,55.50
2018-05-07T04:43:00.964Z,55.60
2018-05-07T04:45:28.044Z,55.60
2018-05-07T04:47:55.893Z,55.30
2018-05-07T04:50:22.965Z,55.30
2018-05-07T04:52:50.045Z,55.10
2018-05-07T04:55:17.129Z,55.20
2018-05-07T04:57:44.197Z,55.20
2018-05-07T05:00:12.042Z,55.20
2018-05-07T05:02:39.152Z,55.10
2018-05-07T05:05:06.338Z,55.10
2018-05-07T05:07:33.421Z,54.80
2018-05-07T05:10:01.262Z,54.90
2018-05-07T05:12:28.337Z,54.80
2018-05-07T05:14:56.618Z,55.10
2018-05-07T05:17:24.457Z,55.40
2018-05-07T05:19:51.545Z,55.40
2018-05-07T05:22:18.623Z,55.30
2018-05-07T05:24:45.700Z,55.30
2018-05-07T05:27:12.788Z,55.40
2018-05-07T05:29:39.865Z,55.80
2018-05-07T05:32:06.954Z,55.60
2018-05-07T05:34:34.792Z,56.70
2018-05-07T05:37:01.870Z,56.00
2018-05-07T05:39:28.941Z,56.10
2018-05-07T05:41:56.008Z,55.90
2018-05-07T05:44:23.080Z,55.70
2018-05-07T05:46:50.141Z,55.40
2018-05-07T05:49:17.219Z,55.00
2018-05-07T05:51:45.057Z,54.10
2018-05-07T05:54:12.156Z,54.00
2018-05-07T05:56:40.159Z,52.90
2018-05-07T05:59:07.928Z,53.10
2018-05-07T06:01:35.449Z,53.10
2018-05-07T06:04:03.033Z,53.70
2018-05-07T06:06:31.265Z,53.40
2018-05-07T06:08:59.558Z,53.60
2018-05-07T06:11:27.078Z,53.60
2018-05-07T06:13:54.577Z,53.30
2018-05-07T06:16:22.110Z,52.90
2018-05-07T06:18:50.396Z,52.50
2018-05-07T06:21:18.752Z,51.70
2018-05-07T06:23:46.199Z,51.70
2018-05-07T06:26:13.730Z,51.80
2018-05-07T06:28:41.237Z,52.10
2018-05-07T06:31:09.516Z,51.60
2018-05-07T06:33:37.803Z,51.60
2018-05-07T06:36:06.082Z,51.60
2018-05-07T06:38:33.609Z,51.60
2018-05-07T06:41:01.130Z,51.60
2018-05-07T06:43:28.645Z,51.30
2018-05-07T06:45:56.245Z,50.30
2018-05-07T06:48:23.710Z,50.20
2018-05-07T06:50:51.225Z,50.70
2018-05-07T06:53:19.509Z,50.80
2018-05-07T06:55:47.798Z,50.50
2018-05-07T06:58:15.317Z,50.50
2018-05-07T07:00:42.833Z,50.60
2018-05-07T07:03:10.353Z,50.70
2018-05-07T07:05:38.629Z,51.00
2018-05-07T07:08:07.046Z,50.10
2018-05-07T07:10:34.442Z,50.40
2018-05-07T07:13:02.881Z,50.20
2018-05-07T07:15:30.486Z,49.60
2018-05-07T07:17:58.010Z,49.30
2018-05-07T07:20:25.525Z,49.50
2018-05-07T07:22:53.805Z,49.40
2018-05-07T07:25:22.094Z,49.60
2018-05-07T07:27:49.610Z,50.20
2018-05-07T07:30:17.130Z,49.30
2018-05-07T07:32:44.650Z,49.80
2018-05-07T07:35:12.943Z,49.10
2018-05-07T07:37:40.498Z,49.10
2018-05-07T07:40:08.782Z,48.60
2018-05-07T07:42:36.297Z,48.50
2018-05-07T07:45:03.806Z,48.00
2018-05-07T07:47:31.330Z,48.10
2018-05-07T07:49:59.613Z,48.90
2018-05-07T07:52:27.953Z,49.60
2018-05-07T07:54:55.430Z,49.60
2018-05-07T07:57:22.938Z,49.60
2018-05-07T07:59:50.474Z,49.60
2018-05-07T08:02:18.754Z,48.70
2018-05-07T08:04:47.050Z,48.80
2018-05-07T08:07:14.574Z,48.80
2018-05-07T08:09:42.849Z,48.30
2018-05-07T08:12:11.197Z,48.20
2018-05-07T08:14:39.464Z,48.20
2018-05-07T08:17:07.024Z,48.20
2018-05-07T08:19:34.569Z,48.70
2018-05-07T08:22:02.103Z,49.30
2018-05-07T08:24:30.394Z,48.50
2018-05-07T08:26:57.925Z,48.40
2018-05-07T08:29:26.271Z,47.60
2018-05-07T08:31:53.804Z,47.60
2018-05-07T08:34:21.332Z,46.60
2018-05-07T08:36:49.717Z,46.00
2018-05-07T08:39:17.256Z,46.00
2018-05-07T08:41:45.567Z,46.20
2018-05-07T08:44:13.155Z,46.10
2018-05-07T08:46:40.703Z,46.10
2018-05-07T08:49:08.234Z,46.20
2018-05-07T08:51:35.794Z,46.80
2018-05-07T08:54:03.337Z,46.20
2018-05-07T08:56:31.651Z,46.10
2018-05-07T08:58:59.202Z,46.10
2018-05-07T09:01:27.710Z,46.20
2018-05-07T09:03:55.304Z,46.50
2018-05-07T09:06:22.890Z,46.50
2018-05-07T09:08:51.208Z,45.00
2018-05-07T09:11:18.776Z,45.10
2018-05-07T09:13:46.332Z,44.90
2018-05-07T09:16:13.883Z,44.70
2018-05-07T09:18:41.414Z,44.50
2018-05-07T09:21:09.058Z,45.10
2018-05-07T09:23:37.390Z,41.80
2018-05-07T09:26:04.945Z,41.80
2018-05-07T09:28:32.532Z,43.70
2018-05-07T09:31:00.881Z,44.30
2018-05-07T09:33:28.516Z,44.30
2018-05-07T09:35:56.183Z,43.70
2018-05-07T09:38:23.714Z,44.30
2018-05-07T09:40:52.038Z,44.80
2018-05-07T09:43:19.602Z,44.70
2018-05-07T09:45:47.162Z,43.70
2018-05-07T09:48:14.784Z,42.80
2018-05-07T09:50:43.111Z,40.90
2018-05-07T09:53:10.684Z,40.80
2018-05-07T09:55:39.777Z,42.40
2018-05-07T09:58:07.514Z,42.40
2018-05-07T10:00:37.889Z,45.20
2018-05-07T10:03:06.252Z,42.60
2018-05-07T10:05:35.312Z,44.20
2018-05-07T10:08:02.887Z,44.10
2018-05-07T10:10:30.421Z,43.20
2018-05-07T10:12:57.994Z,41.60
2018-05-07T10:15:25.559Z,41.00
2018-05-07T10:17:53.079Z,40.60
2018-05-07T10:20:20.643Z,41.70
2018-05-07T10:22:48.336Z,42.90
2018-05-07T10:25:15.894Z,45.30
2018-05-07T10:27:43.494Z,44.60
2018-05-07T10:30:11.073Z,43.80
2018-05-07T10:32:39.408Z,45.00
2018-05-07T10:35:06.969Z,44.90
2018-05-07T10:37:34.582Z,43.10
2018-05-07T10:40:02.152Z,43.70
2018-05-07T10:42:29.697Z,41.80
2018-05-07T10:44:57.296Z,41.30
2018-05-07T10:47:25.048Z,41.70
2018-05-07T10:49:52.583Z,42.80
2018-05-07T10:52:20.157Z,40.40
2018-05-07T10:54:47.689Z,41.10
2018-05-07T10:57:16.073Z,39.30
2018-05-07T10:59:44.425Z,39.40
2018-05-07T11:02:11.943Z,39.40
2018-05-07T11:04:39.479Z,36.90
2018-05-07T11:07:07.043Z,38.90
2018-05-07T11:09:34.608Z,35.90
2018-05-07T11:12:02.189Z,37.20
2018-05-07T11:14:29.717Z,36.80
2018-05-07T11:16:57.272Z,36.20
2018-05-07T11:19:25.570Z,37.00
2018-05-07T11:21:53.123Z,37.00
2018-05-07T11:24:20.630Z,38.20
2018-05-07T11:26:48.153Z,38.60
2018-05-07T11:29:15.661Z,38.00
2018-05-07T11:31:43.165Z,37.90
2018-05-07T11:34:10.682Z,36.90
2018-05-07T11:36:38.973Z,36.50
2018-05-07T11:39:07.264Z,38.00
2018-05-07T11:41:34.783Z,37.90
2018-05-07T11:44:02.302Z,36.20
2018-05-07T11:46:29.810Z,36.20
2018-05-07T11:48:58.093Z,35.40
2018-05-07T11:51:26.368Z,34.20
2018-05-07T11:53:54.646Z,35.10
2018-05-07T11:56:22.917Z,35.00
2018-05-07T11:58:51.194Z,36.10
2018-05-07T12:01:19.482Z,35.80
2018-05-07T12:03:47.785Z,34.20
2018-05-07T12:06:15.294Z,34.20
2018-05-07T12:08:42.809Z,33.60
2018-05-07T12:11:10.322Z,35.00
2018-05-07T12:13:38.601Z,36.60
2018-05-07T12:16:06.968Z,35.90
2018-05-07T12:18:34.418Z,35.30
2018-05-07T12:21:01.938Z,35.70
2018-05-07T12:23:29.443Z,34.50
2018-05-07T12:25:56.948Z,34.00
2018-05-07T12:28:24.461Z,33.10
2018-05-07T12:30:51.978Z,33.90
2018-05-07T12:33:19.488Z,32.80
2018-05-07T12:35:47.765Z,33.20
2018-05-07T12:38:16.049Z,32.60
2018-05-07T12:40:44.320Z,32.30
2018-05-07T12:43:12.601Z,32.80
2018-05-07T12:45:40.885Z,33.00
2018-05-07T12:48:08.397Z,33.00
2018-05-07T12:50:35.919Z,33.20
2018-05-07T12:53:03.434Z,31.60
2018-05-07T12:55:30.936Z,30.80
2018-05-07T12:57:58.450Z,32.50
2018-05-07T13:00:25.969Z,31.10
2018-05-07T13:02:53.478Z,30.30
2018-05-07T13:05:21.758Z,33.10
2018-05-07T13:07:50.038Z,30.50
2018-05-07T13:10:18.318Z,33.10
2018-05-07T13:12:46.606Z,31.10
2018-05-07T13:15:14.130Z,31.10
2018-05-07T13:17:41.644Z,29.80
2018-05-07T13:20:09.157Z,28.50
2018-05-07T13:22:37.428Z,27.20
2018-05-07T13:25:04.945Z,27.10
2018-05-07T13:27:32.459Z,27.70
2018-05-07T13:30:00.741Z,30.30
2018-05-07T13:32:29.030Z,31.90
2018-05-07T13:34:56.541Z,31.90
2018-05-07T13:37:24.046Z,29.50
2018-05-07T13:39:51.598Z,28.90
2018-05-07T13:42:19.881Z,28.90
2018-05-07T13:44:47.394Z,28.90
2018-05-07T13:47:14.914Z,29.10
2018-05-07T13:49:42.458Z,28.50
2018-05-07T14:11:21.489Z,26.20
2018-05-07T14:13:49.000Z,26.80
2018-05-07T14:16:16.501Z,28.20
2018-05-07T14:18:44.026Z,26.30
2018-05-07T14:21:11.532Z,26.20
2018-05-07T14:23:39.814Z,26.30
2018-05-07T14:26:08.097Z,25.90
2018-05-07T14:28:36.370Z,25.40
2018-05-07T14:31:04.645Z,23.90
2018-05-07T14:33:33.028Z,24.40
2018-05-07T14:36:00.546Z,24.40
2018-05-07T14:38:28.050Z,24.10
2018-05-07T14:40:55.565Z,24.00
2018-05-07T14:43:23.081Z,24.50
2018-05-07T14:45:50.598Z,25.20
2018-05-07T14:48:18.102Z,25.30
2018-05-07T14:50:45.621Z,24.40
2018-05-07T14:53:13.911Z,24.60
2018-05-07T14:55:42.238Z,25.10
2018-05-07T14:58:09.721Z,25.10
2018-05-07T15:00:37.994Z,25.10
2018-05-07T15:03:05.514Z,25.10
2018-05-07T15:05:33.073Z,24.70
2018-05-07T15:08:01.326Z,23.50
2018-05-07T15:10:28.826Z,23.40
2018-05-07T15:12:56.530Z,23.20
2018-05-07T15:15:24.804Z,24.90
2018-05-07T15:17:53.073Z,24.20
2018-05-07T15:20:21.370Z,23.30
2018-05-07T15:22:49.709Z,24.10
2018-05-07T15:25:17.229Z,24.10
2018-05-07T15:27:44.750Z,23.50
2018-05-07T15:30:13.033Z,23.50
2018-05-07T15:32:41.310Z,22.70
2018-05-07T15:35:09.599Z,22.80
2018-05-07T15:37:37.109Z,22.80
2018-05-07T15:40:05.190Z,22.80
2018-05-07T15:42:33.490Z,22.70
2018-05-07T15:45:01.762Z,22.40
2018-05-07T15:47:30.050Z,22.20
2018-05-07T15:49:58.331Z,22.30
2018-05-07T15:52:26.631Z,22.60
2018-05-07T15:54:54.150Z,22.60
2018-05-07T15:57:22.425Z,21.60
2018-05-07T15:59:49.946Z,21.60
2018-05-07T16:02:17.457Z,21.30
2018-05-07T16:04:45.736Z,22.50
2018-05-07T16:07:14.059Z,23.10
2018-05-07T16:09:41.537Z,23.10
2018-05-07T16:12:09.059Z,23.00
2018-05-07T16:14:36.565Z,22.10
2018-05-07T16:17:05.318Z,22.20
2018-05-07T16:19:32.833Z,22.20
2018-05-07T16:22:01.163Z,24.80
2018-05-07T16:24:28.650Z,24.80
2018-05-07T16:26:56.162Z,24.30
2018-05-07T16:29:23.677Z,25.20
2018-05-07T16:31:51.963Z,26.10
2018-05-07T16:34:20.234Z,27.10
2018-05-07T16:36:48.523Z,27.00
2018-05-07T16:39:16.042Z,27.00
2018-05-07T16:41:43.550Z,27.20
2018-05-07T16:44:11.065Z,27.00
2018-05-07T16:46:38.633Z,27.50
2018-05-07T16:49:06.156Z,28.00
2018-05-07T16:51:33.639Z,28.90
2018-05-07T16:54:01.153Z,28.90
2018-05-07T16:56:28.670Z,28.60
2018-05-07T16:58:56.946Z,29.90
2018-05-07T17:01:25.294Z,30.00
2018-05-07T17:03:52.758Z,30.00
2018-05-07T17:06:20.275Z,30.10
2018-05-07T17:08:48.044Z,30.60
2018-05-07T17:11:15.586Z,31.70
2018-05-07T17:13:43.107Z,32.10
2018-05-07T17:16:10.630Z,31.90
2018-05-07T17:18:38.150Z,32.60
2018-05-07T17:21:07.115Z,32.90
2018-05-07T17:23:34.731Z,32.90
2018-05-07T17:26:02.245Z,32.90
2018-05-07T17:28:29.758Z,33.40
2018-05-07T17:30:57.273Z,33.60
2018-05-07T17:33:25.628Z,33.70
2018-05-07T17:35:53.839Z,33.80
2018-05-07T17:38:22.114Z,34.00
2018-05-07T17:40:50.394Z,33.90
2018-05-07T17:43:18.677Z,33.90
2018-05-07T17:45:59.697Z,33.90
2018-05-07T17:48:39.028Z,34.00
2018-05-07T17:51:06.549Z,34.00
2018-05-07T17:53:34.058Z,34.40
2018-05-07T17:56:01.619Z,34.90
2018-05-07T17:58:29.132Z,35.30
2018-05-07T18:00:56.645Z,36.50
2018-05-07T18:03:24.169Z,36.80
2018-05-07T18:05:51.674Z,36.60
2018-05-07T18:08:19.186Z,36.00
2018-05-07T18:10:46.715Z,36.30
2018-05-07T18:13:14.230Z,36.50
2018-05-07T18:15:41.738Z,36.80
2018-05-07T18:18:09.258Z,37.20
2018-05-07T18:20:36.772Z,38.00
2018-05-07T18:23:04.301Z,38.80
2018-05-07T18:25:32.577Z,38.40
2018-05-07T18:28:00.967Z,38.20
2018-05-07T18:30:28.398Z,38.20
2018-05-07T18:32:56.685Z,39.20
2018-05-07T18:35:24.975Z,38.90
2018-05-07T18:37:52.491Z,38.80
2018-05-07T18:40:20.018Z,39.00
2018-05-07T18:42:47.529Z,38.90
2018-05-07T18:45:15.817Z,39.50
2018-05-07T18:47:44.136Z,39.80
2018-05-07T18:50:11.654Z,39.80
2018-05-07T18:52:39.938Z,40.10
2018-05-07T18:55:07.468Z,40.20
2018-05-07T18:57:34.998Z,40.40
2018-05-07T19:00:02.510Z,41.00
2018-05-07T19:02:30.786Z,41.60
2018-05-07T19:04:59.057Z,42.00
2018-05-07T19:07:27.337Z,42.30
2018-05-07T19:09:55.613Z,42.50
2018-05-07T19:12:23.901Z,42.70
2018-05-07T19:14:51.431Z,42.70
2018-05-07T19:17:19.713Z,43.30
2018-05-07T19:19:48.064Z,43.30
2018-05-07T19:22:16.286Z,43.40
2018-05-07T19:24:44.571Z,43.80
2018-05-07T19:27:12.109Z,43.80
2018-05-07T19:29:40.387Z,44.10
2018-05-07T19:32:08.680Z,44.00
2018-05-07T19:34:36.190Z,44.00
2018-05-07T19:37:03.704Z,44.20
2018-05-07T19:39:31.225Z,44.20
2018-05-07T19:41:58.730Z,44.40
2018-05-07T19:44:26.233Z,45.10
2018-05-07T19:46:54.518Z,45.10
2018-05-07T19:49:22.026Z,45.10
2018-05-07T19:51:49.542Z,45.10
2018-05-07T19:54:17.813Z,45.00
2018-05-07T19:56:45.342Z,45.00
2018-05-07T19:59:12.861Z,46.00
2018-05-07T20:01:40.382Z,45.60
2018-05-07T20:04:07.890Z,45.40
2018-05-07T20:06:35.393Z,45.90
2018-05-07T20:09:02.920Z,46.10
2018-05-07T20:11:30.426Z,46.10
2018-05-07T20:13:58.721Z,46.00
2018-05-07T20:16:27.001Z,46.30
2018-05-07T20:18:54.509Z,46.20
2018-05-07T20:21:22.014Z,46.30
2018-05-07T20:23:50.286Z,46.70
2018-05-07T20:26:18.562Z,46.10
2018-05-07T20:28:46.838Z,46.20
2018-05-07T20:31:15.112Z,46.20
2018-05-07T20:33:43.389Z,46.40
2018-05-07T20:36:11.670Z,46.40
2018-05-07T20:38:39.948Z,46.60
2018-05-07T20:41:07.457Z,46.60
2018-05-07T20:43:34.986Z,46.70
2018-05-07T20:46:02.507Z,46.70
2018-05-07T20:48:30.009Z,47.00
2018-05-07T20:50:57.514Z,47.40
2018-05-07T20:53:25.790Z,47.80
2018-05-07T20:55:54.061Z,48.20
2018-05-07T20:58:23.086Z,47.50
2018-05-07T21:00:51.363Z,47.50
2018-05-07T21:03:18.901Z,47.50
2018-05-07T21:05:46.411Z,47.90
2018-05-07T21:08:13.919Z,47.40
2018-05-07T21:10:41.434Z,48.30
2018-05-07T21:13:08.954Z,48.50
2018-05-07T21:15:37.242Z,47.50
2018-05-07T21:18:04.753Z,47.50
2018-05-07T21:20:32.278Z,47.40
2018-05-07T21:22:59.789Z,47.50
2018-05-07T21:25:27.299Z,47.30
2018-05-07T21:27:54.818Z,47.10
2018-05-07T21:30:23.094Z,48.20
2018-05-07T21:32:51.373Z,48.60
2018-05-07T21:35:19.654Z,48.70
2018-05-07T21:37:47.939Z,48.70
2018-05-07T21:40:15.446Z,48.70
2018-05-07T21:42:42.969Z,48.70
2018-05-07T21:45:10.474Z,48.60
2018-05-07T21:47:37.987Z,48.50
2018-05-07T21:50:05.498Z,48.60
2018-05-07T21:52:33.018Z,48.70
2018-05-07T21:55:00.529Z,48.40
2018-05-07T21:57:28.817Z,49.70
2018-05-07T21:59:57.090Z,50.20
2018-05-07T22:02:25.373Z,50.90
2018-05-07T22:04:52.890Z,50.80
2018-05-07T22:07:20.408Z,50.90
2018-05-07T22:09:47.933Z,51.70
2018-05-07T22:12:16.280Z,50.40
2018-05-07T22:14:43.744Z,50.40
2018-05-07T22:17:11.262Z,50.50
2018-05-07T22:19:38.788Z,50.50
2018-05-07T22:22:07.074Z,51.40
2018-05-07T22:24:35.354Z,51.90
2018-05-07T22:27:02.861Z,51.80
2018-05-07T22:29:30.377Z,52.40
2018-05-07T22:31:57.890Z,52.60
2018-05-07T22:34:25.408Z,53.00
2018-05-07T22:36:52.918Z,53.50
2018-05-07T22:39:21.278Z,53.40
2018-05-07T22:41:48.753Z,53.70
2018-05-07T22:44:16.265Z,53.70
2018-05-07T22:46:43.786Z,53.60
2018-05-07T22:49:12.075Z,53.80
2018-05-07T22:51:39.593Z,53.60
2018-05-07T22:54:07.123Z,53.50
2018-05-07T22:56:34.629Z,53.40
2018-05-07T22:59:02.925Z,54.00
2018-05-07T23:01:31.217Z,54.40
2018-05-07T23:03:58.757Z,54.30
2018-05-07T23:06:27.099Z,54.80
2018-05-07T23:08:54.561Z,54.60
2018-05-07T23:11:22.070Z,54.90
2018-05-07T23:13:49.587Z,55.20
2018-05-07T23:16:17.110Z,55.30
2018-05-07T23:18:44.626Z,55.40
2018-05-07T23:21:12.905Z,55.70
2018-05-07T23:23:41.192Z,55.90
2018-05-07T23:26:08.710Z,55.90
2018-05-07T23:28:36.223Z,56.20
2018-05-07T23:31:03.733Z,56.20
2018-05-07T23:33:31.266Z,56.20
2018-05-07T23:35:58.774Z,56.20
2018-05-07T23:38:27.050Z,55.90
2018-05-07T23:40:55.334Z,55.50
2018-05-07T23:43:22.842Z,55.40
2018-05-07T23:45:50.357Z,55.20
2018-05-07T23:48:17.865Z,55.20
2018-05-07T23:50:45.387Z,55.40
2018-05-07T23:53:12.905Z,55.50
2018-05-07T23:55:41.197Z,55.70
2018-05-07T23:58:09.478Z,55.70
